createdAt,value
2018-11-11T00:00:48.883Z,50.67
2018-11-11T00:03:17.800Z,44.83
2018-11-11T00:05:46.834Z,47.62
2018-11-11T00:08:15.741Z,47.70
2018-11-11T00:10:44.613Z,47.48
2018-11-11T00:13:13.694Z,45.50
2018-11-11T00:15:42.621Z,48.13
2018-11-11T00:18:11.550Z,49.55
2018-11-11T00:20:40.418Z,48.08
2018-11-11T00:23:09.335Z,44.90
2018-11-11T00:25:38.357Z,48.15
2018-11-11T00:28:07.262Z,49.93
2018-11-11T00:30:36.141Z,48.02
2018-11-11T00:33:05.464Z,46.05
2018-11-11T00:35:34.372Z,46.75
2018-11-11T00:38:03.257Z,47.23
2018-11-11T00:40:38.735Z,48.30
2018-11-11T00:43:07.751Z,46.23
2018-11-11T00:45:36.676Z,44.00
2018-11-11T00:48:05.656Z,44.60
2018-11-11T00:50:34.574Z,48.52
2018-11-11T00:53:03.515Z,45.67
2018-11-11T00:55:38.472Z,43.60
2018-11-11T00:58:07.512Z,46.25
2018-11-11T01:00:36.365Z,46.30
2018-11-11T01:03:05.836Z,46.13
2018-11-11T01:05:34.735Z,45.70
2018-11-11T01:08:03.621Z,49.88
2018-11-11T01:10:32.596Z,46.33
2018-11-11T01:13:01.441Z,45.78
2018-11-11T01:15:30.344Z,44.23
2018-11-11T01:17:59.207Z,48.25
2018-11-11T01:20:28.314Z,45.80
2018-11-11T01:22:57.307Z,44.63
2018-11-11T01:25:26.335Z,42.78
2018-11-11T01:27:55.293Z,49.90
2018-11-11T01:30:24.246Z,44.80
2018-11-11T01:32:53.180Z,50.17
2018-11-11T01:35:22.098Z,45.67
2018-11-11T01:37:50.974Z,46.95
2018-11-11T01:40:19.848Z,46.23
2018-11-11T01:42:48.773Z,47.33
2018-11-11T01:45:18.835Z,49.25
2018-11-11T01:47:48.521Z,48.02
2018-11-11T01:50:17.520Z,44.50
2018-11-11T01:52:46.450Z,40.48
2018-11-11T01:55:15.549Z,46.65
2018-11-11T01:57:44.451Z,44.18
2018-11-11T02:00:15.593Z,47.60
2018-11-11T02:02:45.186Z,44.90
2018-11-11T02:05:14.522Z,44.48
2018-11-11T02:07:44.462Z,41.60
2018-11-11T02:10:13.397Z,43.50
2018-11-11T02:12:43.297Z,41.58
2018-11-11T02:15:13.491Z,47.10
2018-11-11T02:17:42.575Z,45.52
2018-11-11T02:20:20.076Z,45.95
2018-11-11T02:22:50.460Z,47.88
2018-11-11T02:25:19.400Z,48.80
2018-11-11T02:27:48.336Z,46.25
2018-11-11T02:30:18.527Z,47.25
2018-11-11T02:32:47.417Z,45.52
2018-11-11T02:35:16.316Z,44.98
2018-11-11T02:37:45.436Z,44.75
2018-11-11T02:40:15.488Z,42.55
2018-11-11T02:42:44.795Z,46.85
2018-11-11T02:45:14.790Z,44.58
2018-11-11T02:47:43.675Z,44.00
2018-11-11T02:50:14.752Z,46.13
2018-11-11T02:52:44.137Z,44.33
2018-11-11T02:55:13.689Z,43.78
2018-11-11T02:57:43.249Z,46.60
2018-11-11T03:00:14.037Z,43.68
2018-11-11T03:02:43.871Z,46.28
2018-11-11T03:05:13.939Z,45.65
2018-11-11T03:07:42.900Z,46.92
2018-11-11T03:10:12.867Z,47.15
2018-11-11T03:12:42.364Z,46.08
2018-11-11T03:15:12.390Z,50.88
2018-11-11T03:17:41.349Z,46.53
2018-11-11T03:20:11.061Z,48.30
2018-11-11T03:22:39.979Z,49.80
2018-11-11T03:25:10.773Z,47.95
2018-11-11T03:27:39.883Z,46.60
2018-11-11T03:30:10.542Z,49.83
2018-11-11T03:32:39.963Z,56.60
2018-11-11T03:35:10.697Z,62.23
2018-11-11T03:37:39.821Z,72.67
2018-11-11T03:40:12.158Z,74.82
2018-11-11T03:42:41.179Z,73.12
2018-11-11T03:45:12.075Z,79.97
2018-11-11T03:47:41.615Z,80.97
2018-11-11T03:50:11.131Z,73.80
2018-11-11T03:52:40.285Z,61.50
2018-11-11T03:55:09.792Z,57.38
2018-11-11T03:57:38.908Z,53.13
2018-11-11T04:00:09.525Z,57.88
2018-11-11T04:02:38.621Z,52.83
2018-11-11T04:05:08.667Z,53.10
2018-11-11T04:07:37.688Z,47.48
2018-11-11T04:10:08.602Z,50.55
2018-11-11T04:12:37.490Z,49.20
2018-11-11T04:15:07.893Z,51.45
2018-11-11T04:17:37.287Z,53.65
2018-11-11T04:20:07.389Z,56.85
2018-11-11T04:22:36.240Z,52.48
2018-11-11T04:25:05.257Z,54.45
2018-11-11T04:27:34.256Z,55.63
2018-11-11T04:30:03.241Z,52.08
2018-11-11T04:32:32.169Z,51.30
2018-11-11T04:35:01.080Z,51.37
2018-11-11T04:37:29.993Z,47.88
2018-11-11T04:39:59.102Z,52.38
2018-11-11T04:42:28.025Z,48.70
2018-11-11T04:44:57.053Z,50.05
2018-11-11T04:47:26.061Z,49.18
2018-11-11T04:49:54.986Z,49.30
2018-11-11T04:52:23.878Z,48.45
2018-11-11T04:54:52.753Z,53.83
2018-11-11T04:57:21.706Z,50.52
2018-11-11T04:59:50.748Z,49.83
2018-11-11T05:02:19.646Z,51.02
2018-11-11T05:04:48.659Z,50.17
2018-11-11T05:07:17.541Z,48.65
2018-11-11T05:09:46.426Z,45.98
2018-11-11T05:12:15.322Z,55.55
2018-11-11T05:14:44.210Z,52.15
2018-11-11T05:17:13.123Z,37.67
2018-11-11T05:19:41.994Z,235.15
2018-11-11T05:22:13.119Z,56.90
2018-11-11T05:24:42.023Z,51.37
2018-11-11T05:27:10.931Z,60.80
2018-11-11T05:29:39.847Z,54.80
2018-11-11T05:32:08.748Z,57.98
2018-11-11T05:34:37.673Z,53.85
2018-11-11T05:37:06.921Z,58.70
2018-11-11T05:39:35.804Z,58.85
2018-11-11T05:42:04.748Z,69.82
2018-11-11T05:44:33.681Z,64.72
2018-11-11T05:47:02.659Z,64.37
2018-11-11T05:49:31.616Z,61.95
2018-11-11T05:52:00.636Z,67.27
2018-11-11T05:54:29.535Z,68.55
2018-11-11T05:56:58.618Z,65.20
2018-11-11T05:59:27.480Z,62.93
2018-11-11T06:01:56.424Z,59.70
2018-11-11T06:04:25.514Z,62.05
2018-11-11T06:06:54.388Z,58.00
2018-11-11T06:09:23.271Z,62.62
2018-11-11T06:11:52.140Z,58.02
2018-11-11T06:14:21.071Z,64.65
2018-11-11T06:16:49.985Z,59.05
2018-11-11T06:19:18.938Z,59.60
2018-11-11T06:21:47.887Z,60.75
2018-11-11T06:24:17.049Z,61.50
2018-11-11T06:26:46.143Z,66.80
2018-11-11T06:29:15.082Z,63.02
2018-11-11T06:31:44.018Z,60.83
2018-11-11T06:34:13.384Z,68.47
2018-11-11T06:36:42.250Z,69.17
2018-11-11T06:39:12.315Z,60.05
2018-11-11T06:41:41.298Z,59.73
2018-11-11T06:44:10.436Z,56.68
2018-11-11T06:46:39.329Z,62.35
2018-11-11T06:49:08.301Z,58.83
2018-11-11T06:51:37.254Z,60.50
2018-11-11T06:54:06.345Z,56.58
2018-11-11T06:56:35.292Z,61.25
2018-11-11T06:59:04.264Z,62.45
2018-11-11T07:01:33.429Z,65.08
2018-11-11T07:04:03.442Z,62.80
2018-11-11T07:06:32.792Z,63.17
2018-11-11T07:09:01.847Z,60.12
2018-11-11T07:11:30.721Z,59.50
2018-11-11T07:13:59.707Z,60.38
2018-11-11T07:16:28.641Z,55.52
2018-11-11T07:18:57.576Z,57.65
2018-11-11T07:21:26.553Z,57.83
2018-11-11T07:23:55.509Z,59.75
2018-11-11T07:26:24.356Z,56.68
2018-11-11T07:28:53.327Z,52.45
2018-11-11T07:31:22.228Z,59.15
2018-11-11T07:33:51.105Z,55.35
2018-11-11T07:36:19.980Z,55.65
2018-11-11T07:38:49.011Z,55.63
2018-11-11T07:41:17.967Z,52.83
2018-11-11T07:43:46.970Z,52.62
2018-11-11T07:46:15.879Z,52.83
2018-11-11T07:48:44.811Z,58.85
2018-11-11T07:51:13.743Z,53.20
2018-11-11T07:53:42.703Z,55.20
2018-11-11T07:56:11.581Z,54.63
2018-11-11T07:58:40.572Z,58.02
2018-11-11T08:01:09.506Z,59.53
2018-11-11T08:03:38.439Z,57.83
2018-11-11T08:06:07.674Z,56.25
2018-11-11T08:08:36.626Z,84.05
2018-11-11T08:11:16.497Z,76.25
2018-11-11T08:13:45.350Z,57.87
2018-11-11T08:16:14.327Z,58.87
2018-11-11T08:18:43.369Z,55.50
2018-11-11T08:21:12.300Z,55.47
2018-11-11T08:23:41.220Z,57.33
2018-11-11T08:26:10.294Z,53.97
2018-11-11T08:28:39.414Z,55.52
2018-11-11T08:31:08.407Z,56.18
2018-11-11T08:33:37.361Z,57.58
2018-11-11T08:36:06.272Z,52.55
2018-11-11T08:38:35.457Z,52.30
2018-11-11T08:41:04.645Z,57.20
2018-11-11T08:43:33.609Z,64.50
2018-11-11T08:46:02.607Z,60.38
2018-11-11T08:48:31.603Z,58.93
2018-11-11T08:51:00.501Z,59.60
2018-11-11T08:53:29.410Z,62.33
2018-11-11T08:55:58.397Z,56.03
2018-11-11T08:58:27.348Z,61.58
2018-11-11T09:00:56.245Z,63.68
2018-11-11T09:03:25.602Z,58.78
2018-11-11T09:05:54.462Z,59.35
2018-11-11T09:08:23.363Z,57.10
2018-11-11T09:10:52.360Z,60.75
2018-11-11T09:13:21.350Z,60.23
2018-11-11T09:15:50.233Z,61.33
2018-11-11T09:18:19.257Z,60.97
2018-11-11T09:20:48.086Z,59.47
2018-11-11T09:23:17.860Z,59.27
2018-11-11T09:25:46.865Z,58.97
2018-11-11T09:28:15.735Z,60.00
2018-11-11T09:30:44.640Z,56.10
2018-11-11T09:33:13.554Z,55.17
2018-11-11T09:35:42.476Z,57.43
2018-11-11T09:38:11.375Z,51.33
2018-11-11T09:40:40.268Z,50.20
2018-11-11T09:43:09.212Z,53.50
2018-11-11T09:45:38.183Z,46.00
2018-11-11T09:48:07.286Z,50.90
2018-11-11T09:50:36.518Z,50.07
2018-11-11T09:53:05.557Z,50.03
2018-11-11T09:55:34.622Z,50.53
2018-11-11T09:58:03.630Z,58.47
2018-11-11T10:00:32.543Z,51.90
2018-11-11T10:03:08.264Z,50.33
2018-11-11T10:05:44.605Z,48.93
2018-11-11T10:08:19.993Z,51.20
2018-11-11T10:11:57.834Z,47.63
2018-11-11T10:16:34.182Z,41.67
2018-11-11T10:19:36.978Z,45.17
2018-11-11T10:23:13.076Z,40.43
2018-11-11T10:25:47.310Z,38.37
2018-11-11T10:28:20.131Z,42.47
2018-11-11T10:30:53.528Z,41.07
2018-11-11T10:33:30.747Z,41.73
2018-11-11T10:37:05.916Z,42.10
2018-11-11T10:39:38.617Z,41.80
2018-11-11T10:43:11.133Z,39.67
2018-11-11T10:45:55.640Z,37.90
2018-11-11T10:48:27.523Z,35.40
2018-11-11T10:50:58.796Z,31.10
2018-11-11T10:53:27.727Z,34.23
2018-11-11T10:55:56.721Z,36.33
2018-11-11T10:58:26.086Z,35.53
2018-11-11T11:01:00.059Z,31.60
2018-11-11T11:03:32.064Z,29.20
2018-11-11T11:06:01.772Z,29.00
2018-11-11T11:08:30.730Z,26.00
2018-11-11T11:10:59.765Z,24.70
2018-11-11T11:13:29.585Z,32.10
2018-11-11T11:15:59.132Z,27.40
2018-11-11T11:18:28.031Z,25.47
2018-11-11T11:20:56.949Z,26.17
2018-11-11T11:23:25.904Z,25.00
2018-11-11T11:25:54.796Z,24.73
2018-11-11T11:28:23.803Z,23.47
2018-11-11T11:30:52.725Z,23.83
2018-11-11T11:33:21.676Z,31.03
2018-11-11T11:35:50.684Z,30.27
2018-11-11T11:38:19.570Z,26.77
2018-11-11T11:40:48.536Z,22.03
2018-11-11T11:43:17.460Z,23.40
2018-11-11T11:45:46.422Z,25.53
2018-11-11T11:48:15.278Z,24.50
2018-11-11T11:50:44.191Z,23.23
2018-11-11T11:53:13.181Z,23.87
2018-11-11T11:55:42.121Z,23.60
2018-11-11T11:58:17.705Z,25.47
2018-11-11T12:00:46.585Z,25.10
2018-11-11T12:03:16.416Z,24.53
2018-11-11T12:05:46.078Z,23.50
2018-11-11T12:08:15.057Z,23.27
2018-11-11T12:10:44.122Z,23.80
2018-11-11T12:13:13.929Z,26.17
2018-11-11T12:15:43.201Z,26.40
2018-11-11T12:18:12.147Z,27.60
2018-11-11T12:20:41.457Z,24.17
2018-11-11T12:23:11.156Z,24.07
2018-11-11T12:25:40.396Z,27.13
2018-11-11T12:28:09.621Z,21.87
2018-11-11T12:30:38.538Z,23.77
2018-11-11T12:33:07.451Z,26.40
2018-11-11T12:35:36.318Z,24.53
2018-11-11T12:38:05.577Z,23.37
2018-11-11T12:40:34.609Z,28.53
2018-11-11T12:43:03.602Z,24.10
2018-11-11T12:45:32.509Z,22.37
2018-11-11T12:48:01.376Z,21.90
2018-11-11T12:50:30.443Z,24.20
2018-11-11T12:52:59.225Z,23.07
2018-11-11T12:55:28.255Z,22.23
2018-11-11T12:57:57.213Z,23.60
2018-11-11T13:00:26.108Z,23.03
2018-11-11T13:02:55.038Z,23.93
2018-11-11T13:05:23.950Z,23.97
2018-11-11T13:07:52.950Z,23.70
2018-11-11T13:10:21.791Z,68.13
2018-11-11T13:12:50.692Z,41.60
2018-11-11T13:15:19.679Z,24.57
2018-11-11T13:17:48.641Z,22.47
2018-11-11T13:20:18.680Z,23.20
2018-11-11T13:22:47.726Z,23.77
2018-11-11T13:25:16.730Z,47.53
2018-11-11T13:27:45.760Z,39.53
2018-11-11T13:30:15.456Z,42.03
2018-11-11T13:32:44.446Z,26.27
2018-11-11T13:35:14.742Z,23.27
2018-11-11T13:37:44.025Z,24.37
2018-11-11T13:40:15.326Z,21.10
2018-11-11T13:42:44.244Z,23.07
2018-11-11T13:45:15.812Z,29.27
2018-11-11T13:47:45.793Z,28.50
2018-11-11T13:50:17.083Z,24.30
2018-11-11T13:52:46.679Z,23.50
2018-11-11T13:55:16.187Z,25.60
2018-11-11T13:57:45.708Z,23.27
2018-11-11T14:00:18.018Z,25.47
2018-11-11T14:02:47.113Z,25.20
2018-11-11T14:05:16.205Z,23.90
2018-11-11T14:07:45.278Z,22.77
2018-11-11T14:10:14.912Z,21.80
2018-11-11T14:12:43.814Z,23.33
2018-11-11T14:15:24.169Z,22.87
2018-11-11T14:17:53.781Z,26.07
2018-11-11T14:20:23.878Z,22.73
2018-11-11T14:22:54.096Z,23.40
2018-11-11T14:25:25.721Z,24.80
2018-11-11T14:27:54.600Z,25.07
2018-11-11T14:30:26.502Z,22.60
2018-11-11T14:32:56.416Z,22.70
2018-11-11T14:35:25.344Z,24.23
2018-11-11T14:37:54.383Z,23.10
2018-11-11T14:40:26.466Z,25.50
2018-11-11T14:42:55.394Z,26.37
2018-11-11T14:45:24.765Z,26.43
2018-11-11T14:47:54.651Z,25.20
2018-11-11T14:50:24.532Z,27.77
2018-11-11T14:52:53.635Z,27.00
2018-11-11T14:55:29.553Z,26.50
2018-11-11T14:57:59.550Z,22.63
2018-11-11T15:00:29.891Z,24.90
2018-11-11T15:03:03.113Z,28.37
2018-11-11T15:05:32.255Z,27.67
2018-11-11T15:08:01.244Z,29.83
2018-11-11T15:10:30.282Z,29.80
2018-11-11T15:12:59.694Z,28.57
2018-11-11T15:15:28.711Z,28.30
2018-11-11T15:17:58.906Z,24.47
2018-11-11T15:20:28.944Z,25.47
2018-11-11T15:22:57.894Z,26.60
2018-11-11T15:25:28.093Z,25.07
2018-11-11T15:27:57.032Z,32.73
2018-11-11T15:30:28.148Z,35.47
2018-11-11T15:32:57.920Z,50.77
2018-11-11T15:35:26.878Z,44.10
2018-11-11T15:37:55.818Z,43.63
2018-11-11T15:40:26.235Z,43.90
2018-11-11T15:42:55.394Z,46.23
2018-11-11T15:45:25.744Z,47.40
2018-11-11T15:47:54.956Z,49.60
2018-11-11T15:50:25.043Z,53.73
2018-11-11T15:52:55.203Z,61.10
2018-11-11T15:55:25.399Z,63.97
2018-11-11T15:57:54.556Z,60.17
2018-11-11T16:00:27.624Z,56.97
2018-11-11T16:02:56.631Z,62.00
2018-11-11T16:05:25.607Z,67.63
2018-11-11T16:07:55.430Z,66.37
2018-11-11T16:10:25.662Z,67.73
2018-11-11T16:12:54.658Z,62.73
2018-11-11T16:15:28.497Z,64.80
2018-11-11T16:17:59.993Z,66.70
2018-11-11T16:20:29.948Z,65.77
2018-11-11T16:22:59.928Z,74.00
2018-11-11T16:25:28.997Z,75.97
2018-11-11T16:27:58.235Z,74.03
2018-11-11T16:30:28.517Z,71.30
2018-11-11T16:32:58.015Z,67.33
2018-11-11T16:35:27.742Z,68.47
2018-11-11T16:38:03.605Z,68.67
2018-11-11T16:40:35.219Z,63.23
2018-11-11T16:43:04.538Z,59.43
2018-11-11T16:45:34.654Z,66.63
2018-11-11T16:48:03.842Z,61.57
2018-11-11T16:50:33.746Z,64.27
2018-11-11T16:53:04.487Z,62.80
2018-11-11T16:55:34.326Z,62.47
2018-11-11T16:58:03.510Z,64.90
2018-11-11T17:00:33.945Z,58.40
2018-11-11T17:03:03.753Z,60.53
2018-11-11T17:05:34.851Z,53.57
2018-11-11T17:08:04.629Z,56.57
2018-11-11T17:10:34.987Z,54.93
2018-11-11T17:13:06.674Z,42.33
2018-11-11T17:15:35.722Z,58.03
2018-11-11T17:18:04.859Z,52.23
2018-11-11T17:20:33.909Z,52.20
2018-11-11T17:23:05.176Z,54.77
2018-11-11T17:25:35.140Z,54.47
2018-11-11T17:28:05.718Z,90.17
2018-11-11T17:30:34.854Z,67.70
2018-11-11T17:33:05.231Z,66.70
2018-11-11T17:35:34.327Z,88.50
2018-11-11T17:38:03.373Z,62.67
2018-11-11T17:40:32.587Z,69.13
2018-11-11T17:43:02.059Z,66.80
2018-11-11T17:45:30.942Z,62.60
2018-11-11T17:47:59.921Z,65.20
2018-11-11T17:50:30.270Z,64.23
2018-11-11T17:53:00.139Z,60.87
2018-11-11T17:55:29.829Z,58.43
2018-11-11T17:57:58.990Z,59.37
2018-11-11T18:00:29.291Z,60.43
2018-11-11T18:03:01.147Z,67.23
2018-11-11T18:05:31.970Z,81.77
2018-11-11T18:08:01.072Z,75.80
2018-11-11T18:10:30.086Z,68.83
2018-11-11T18:12:59.016Z,78.30
2018-11-11T18:15:30.213Z,79.70
2018-11-11T18:18:00.449Z,85.50
2018-11-11T18:20:30.871Z,77.87
2018-11-11T18:23:00.753Z,77.07
2018-11-11T18:25:30.294Z,74.23
2018-11-11T18:27:59.447Z,70.37
2018-11-11T18:30:31.998Z,75.57
2018-11-11T18:33:01.163Z,77.63
2018-11-11T18:35:30.305Z,74.57
2018-11-11T18:37:59.293Z,76.47
2018-11-11T18:40:29.134Z,72.10
2018-11-11T18:42:58.277Z,79.97
2018-11-11T18:45:29.919Z,72.67
2018-11-11T18:47:59.177Z,78.43
2018-11-11T18:50:30.404Z,82.80
2018-11-11T18:52:59.557Z,75.50
2018-11-11T18:55:28.769Z,73.80
2018-11-11T18:57:57.910Z,68.12
2018-11-11T19:00:30.185Z,72.23
2018-11-11T19:02:59.494Z,70.97
2018-11-11T19:05:29.124Z,76.47
2018-11-11T19:07:58.503Z,77.90
2018-11-11T19:10:28.891Z,77.10
2018-11-11T19:12:59.799Z,80.90
2018-11-11T19:15:28.853Z,82.97
2018-11-11T19:17:58.828Z,81.75
2018-11-11T19:20:28.456Z,75.42
2018-11-11T19:22:58.665Z,73.15
2018-11-11T19:25:28.938Z,75.17
2018-11-11T19:27:58.981Z,79.17
2018-11-11T19:30:28.722Z,78.90
2018-11-11T19:32:57.719Z,75.55
2018-11-11T19:35:26.790Z,74.40
2018-11-11T19:37:56.892Z,72.67
2018-11-11T19:40:27.314Z,76.55
2018-11-11T19:42:57.683Z,78.25
2018-11-11T19:45:28.853Z,75.78
2018-11-11T19:47:58.230Z,74.00
2018-11-11T19:50:28.253Z,76.77
2018-11-11T19:52:57.898Z,70.87
2018-11-11T19:55:26.874Z,73.07
2018-11-11T19:57:57.522Z,72.67
2018-11-11T20:00:29.933Z,73.60
2018-11-11T20:02:59.907Z,76.45
2018-11-11T20:05:28.970Z,73.25
2018-11-11T20:07:59.204Z,76.62
2018-11-11T20:10:28.947Z,74.40
2018-11-11T20:12:58.285Z,68.55
2018-11-11T20:15:30.541Z,69.53
2018-11-11T20:17:59.776Z,72.53
2018-11-11T20:20:30.921Z,73.35
2018-11-11T20:22:59.848Z,71.17
2018-11-11T20:25:29.081Z,70.55
2018-11-11T20:27:58.158Z,66.17
2018-11-11T20:30:28.441Z,68.20
2018-11-11T20:32:57.433Z,70.30
2018-11-11T20:35:27.931Z,68.92
2018-11-11T20:37:56.946Z,65.22
2018-11-11T20:40:26.796Z,63.63
2018-11-11T20:42:56.447Z,66.30
2018-11-11T20:45:27.113Z,63.55
2018-11-11T20:47:56.984Z,65.65
2018-11-11T20:50:27.121Z,65.22
2018-11-11T20:52:59.244Z,66.20
2018-11-11T20:55:28.996Z,66.85
2018-11-11T20:57:58.170Z,63.50
2018-11-11T21:00:28.488Z,68.95
2018-11-11T21:02:57.950Z,66.33
2018-11-11T21:05:28.602Z,66.65
2018-11-11T21:07:58.647Z,64.42
2018-11-11T21:10:28.689Z,64.75
2018-11-11T21:12:58.328Z,61.30
2018-11-11T21:15:28.689Z,68.95
2018-11-11T21:17:58.347Z,67.70
2018-11-11T21:20:28.583Z,63.48
2018-11-11T21:22:57.534Z,68.65
2018-11-11T21:25:26.623Z,68.65
2018-11-11T21:27:55.537Z,64.70
2018-11-11T21:30:25.818Z,64.53
2018-11-11T21:32:55.397Z,65.17
2018-11-11T21:35:24.297Z,66.90
2018-11-11T21:37:53.240Z,65.95
2018-11-11T21:40:23.348Z,62.48
2018-11-11T21:42:53.232Z,64.58
2018-11-11T21:45:23.216Z,65.78
2018-11-11T21:47:52.238Z,64.55
2018-11-11T21:50:22.389Z,60.12
2018-11-11T21:53:05.125Z,60.28
2018-11-11T21:55:33.953Z,63.48
2018-11-11T21:58:02.911Z,59.13
2018-11-11T22:00:31.971Z,55.78
2018-11-11T22:03:00.978Z,54.65
2018-11-11T22:05:29.963Z,58.02
2018-11-11T22:07:58.850Z,62.03
2018-11-11T22:10:27.765Z,54.60
2018-11-11T22:12:56.630Z,59.45
2018-11-11T22:15:25.552Z,54.77
2018-11-11T22:17:54.377Z,57.00
2018-11-11T22:20:23.299Z,55.38
2018-11-11T22:22:52.165Z,57.80
2018-11-11T22:25:21.150Z,60.48
2018-11-11T22:27:50.267Z,54.67
2018-11-11T22:30:19.335Z,58.17
2018-11-11T22:32:48.307Z,56.88
2018-11-11T22:35:17.265Z,57.62
2018-11-11T22:37:46.196Z,51.73
2018-11-11T22:40:15.200Z,51.40
2018-11-11T22:42:44.150Z,53.75
2018-11-11T22:45:14.270Z,52.58
2018-11-11T22:47:43.466Z,51.23
2018-11-11T22:50:14.271Z,51.23
2018-11-11T22:52:43.464Z,55.52
2018-11-11T22:55:12.718Z,53.45
2018-11-11T22:57:42.225Z,53.90
2018-11-11T23:00:18.370Z,55.00
2018-11-11T23:02:47.244Z,52.78
2018-11-11T23:05:17.496Z,59.38
2018-11-11T23:07:46.684Z,59.58
2018-11-11T23:10:16.658Z,59.08
2018-11-11T23:12:45.580Z,58.60
2018-11-11T23:15:16.006Z,63.40
2018-11-11T23:17:44.973Z,58.30
2018-11-11T23:20:15.413Z,57.43
2018-11-11T23:22:44.510Z,58.58
2018-11-11T23:25:14.848Z,57.75
2018-11-11T23:27:43.942Z,60.35
2018-11-11T23:30:16.916Z,54.80
2018-11-11T23:32:46.171Z,61.83
2018-11-11T23:35:15.110Z,61.02
2018-11-11T23:37:44.388Z,65.72
2018-11-11T23:40:14.691Z,61.25
2018-11-11T23:42:44.214Z,62.25
2018-11-11T23:45:13.111Z,63.70
2018-11-11T23:47:45.020Z,63.23
2018-11-11T23:50:15.362Z,62.30
2018-11-11T23:52:44.698Z,63.95
2018-11-11T23:55:14.747Z,62.90
2018-11-11T23:57:43.649Z,62.13
